Ault Field, Washington
Current Conditions -  °F | °C
As of 11:56 PM on Friday 31 Oct 2014 (Local Time) from KNUW Reporting Station
Moderate Fog Moderate Fog  
Wind Chill: 44°   Ceiling: 200
Heat Index: 47°   Visibility: 0.25mi
Dew Point: 44°   Wind: 6mph
Humidity: 90%   Direction: 90°E
Pressure: 29.88"   Gusts: NA
Location:  48.3182°N, 122.634°W
Report Text: KNUW 010656Z 09005KT 1/4SM FG OVC002 08/07 A2988 RMK AO2 SLP121 T00830067 $
Loading
Personal Weather Stations






























Interactive Weather Map
Tropical Storm Tracking
New forecast layout! Learn more

10-Day Weather Forecast

Advertisements
Track Severe Weather on mobile